Wassenaar, Netherlands
Current Conditions -  °F | °C
As of 4:25 AM on Saturday 25 Oct 2014 (Local Time) from EHRD Reporting Station
Haze Haze  
Wind Chill: 57°   Ceiling: 600
Heat Index: 57°   Visibility: 3mi
Dew Point: 55°   Wind: 13mph
Humidity: 94%   Direction: 210°SSW
Pressure: 29.94"   Gusts: NA
Location:  52.15°N, 4.37°E
Report Text: EHRD 250225Z AUTO 21011KT 180V240 5000 BR BKN006/// OVC007///14/13 Q1014 TEMPO 2500 RA BECMG 28008KT 9999 NSW SCT006 BKN012
Loading
Personal Weather Stations






























Interactive Weather Map
Tropical Storm Tracking
New forecast layout! Learn more

10-Day Weather Forecast

Advertisements
Track Severe Weather on mobile